Time;durP1;ratioP1;P1;durP2;ratioP2;P2;SDS_P1;SDS_P2;PMS_P1;PMS_P2;Temp;Humidity;BMP_temperature;BMP_pressure;BME280_temperature;BME280_humidity;BME280_pressure;Samples;Min_cycle;Max_cycle;Signal;HPM_P1;HPM_P2
2023/10/20 00:00:41;;;;;;;;;;;;;;;6.88;100.00;99004.47;4920245;29;19941;-78
2023/10/20 00:03:30;;;;;;;;;;;;;;;6.88;100.00;99020.25;4920769;29;19927;-79
2023/10/20 00:06:15;;;;;;;;;;;;;;;6.87;100.00;99007.19;4934207;29;20401;-79
2023/10/20 00:09:03;;;;;;;;;;;;;;;6.87;100.00;99008.00;4939342;29;19978;-80
2023/10/20 00:11:51;;;;;;;;;;;;;;;6.85;100.00;98994.09;4921985;29;19934;-78
2023/10/20 00:14:36;;;;;;;;;;;;;;;6.85;100.00;98983.59;4932487;29;19946;-79
2023/10/20 00:17:22;;;;;;;;;;;;;;;6.85;100.00;98965.16;4935999;29;19935;-82
2023/10/20 00:20:09;;;;;;;;;;;;;;;6.82;100.00;98946.97;4922466;29;19922;-80
2023/10/20 00:22:55;;;;;;;;;;;;;;;6.78;100.00;98919.13;4933511;29;19934;-79
2023/10/20 00:25:41;;;;;;;;;;;;;;;6.74;100.00;98922.88;4921326;29;19931;-77
2023/10/20 00:28:27;;;;;;;;;;;;;;;6.73;100.00;98915.94;4919548;29;19931;-80
2023/10/20 00:31:13;;;;;;;;;;;;;;;6.72;100.00;98911.63;4912523;29;19930;-79
2023/10/20 00:33:58;;;;;;;;;;;;;;;6.72;100.00;98919.50;4933974;29;20310;-80
2023/10/20 00:36:44;;;;;;;;;;;;;;;6.70;100.00;98916.94;4921674;28;19935;-81
2023/10/20 00:39:30;;;;;;;;;;;;;;;6.68;100.00;98913.56;4921792;29;20315;-79
2023/10/20 00:42:15;;;;;;;;;;;;;;;6.67;100.00;98906.63;4921825;29;20125;-80
2023/10/20 00:45:01;;;;;;;;;;;;;;;6.68;100.00;98907.47;4938808;29;19935;-78
2023/10/20 00:47:47;;;;;;;;;;;;;;;6.69;100.00;98899.50;4936484;29;19933;-80
2023/10/20 00:50:33;;;;;;;;;;;;;;;6.70;100.00;98893.28;4937473;29;19931;-79
2023/10/20 00:53:19;;;;;;;;;;;;;;;6.70;100.00;98892.47;4923348;28;19933;-79
2023/10/20 00:56:07;;;;;;;;;;;;;;;6.73;100.00;98889.63;4922131;29;19933;-79
2023/10/20 00:58:53;;;;;;;;;;;;;;;6.72;100.00;98880.91;4923095;29;20884;-79
2023/10/20 01:01:38;;;;;;;;;;;;;;;6.74;100.00;98886.06;4937655;28;20472;-78
2023/10/20 01:04:24;;;;;;;;;;;;;;;6.74;100.00;98886.06;4936845;29;19931;-79
2023/10/20 01:07:10;;;;;;;;;;;;;;;6.74;100.00;98907.09;4939956;28;19931;-80
2023/10/20 01:09:59;;;;;;;;;;;;;;;6.74;100.00;98897.44;4923807;29;20013;-79
2023/10/20 01:12:45;;;;;;;;;;;;;;;6.73;100.00;98879.97;4924258;29;21946;-79
2023/10/20 01:15:31;;;;;;;;;;;;;;;6.70;100.00;98879.31;4938180;29;19927;-82
2023/10/20 01:18:17;;;;;;;;;;;;;;;6.69;100.00;98867.09;4921103;29;19931;-79
2023/10/20 01:21:05;;;;;;;;;;;;;;;6.71;100.00;98865.22;4938069;29;20001;-80
2023/10/20 01:23:53;;;;;;;;;;;;;;;6.69;100.00;98865.31;4936186;29;19927;-79
2023/10/20 01:26:39;;;;;;;;;;;;;;;6.69;100.00;98870.56;4936870;29;20911;-79
2023/10/20 01:29:24;;;;;;;;;;;;;;;6.71;100.00;98862.59;4937382;29;19985;-78
2023/10/20 01:32:11;;;;;;;;;;;;;;;6.66;100.00;98876.84;4937790;29;19931;-79
2023/10/20 01:34:56;;;;;;;;;;;;;;;6.63;100.00;98863.91;4937411;28;19934;-80
2023/10/20 01:37:42;;;;;;;;;;;;;;;6.64;100.00;98864.72;4921330;29;20251;-81
2023/10/20 01:40:28;;;;;;;;;;;;;;;6.65;100.00;98875.16;4920661;29;19927;-79
2023/10/20 01:43:13;;;;;;;;;;;;;;;6.70;100.00;98881.94;4934552;29;19993;-79
2023/10/20 01:46:03;;;;;;;;;;;;;;;6.72;100.00;98880.91;4936028;29;19941;-79
2023/10/20 01:48:49;;;;;;;;;;;;;;;6.73;100.00;98876.47;4923208;29;19927;-79
2023/10/20 01:51:35;;;;;;;;;;;;;;;6.71;100.00;98859.97;4940493;28;19938;-83
2023/10/20 01:54:21;;;;;;;;;;;;;;;6.65;100.00;98835.72;4937069;28;20888;-80
2023/10/20 01:57:06;;;;;;;;;;;;;;;6.63;100.00;98813.94;4936187;29;19943;-80
2023/10/20 01:59:52;;;;;;;;;;;;;;;6.60;100.00;98816.75;4936893;29;20029;-79
2023/10/20 02:02:38;;;;;;;;;;;;;;;6.58;100.00;98823.06;4920775;28;19982;-79
2023/10/20 02:05:23;;;;;;;;;;;;;;;6.58;100.00;98837.03;4919315;29;19945;-81
2023/10/20 02:08:09;;;;;;;;;;;;;;;6.58;100.00;98828.31;4910421;29;20002;-81
2023/10/20 02:10:55;;;;;;;;;;;;;;;6.59;100.00;98824.75;4938940;29;19931;-81
2023/10/20 02:13:42;;;;;;;;;;;;;;;6.57;100.00;98811.69;4914509;29;19960;-80
2023/10/20 02:16:28;;;;;;;;;;;;;;;6.57;100.00;98810.81;4937610;29;19967;-78
2023/10/20 02:19:16;;;;;;;;;;;;;;;6.58;100.00;98802.84;4938024;29;19939;-80
2023/10/20 02:22:02;;;;;;;;;;;;;;;6.59;100.00;98815.06;4924566;29;19926;-79
2023/10/20 02:24:48;;;;;;;;;;;;;;;6.60;100.00;98821.16;4921891;29;19931;-80
2023/10/20 02:27:34;;;;;;;;;;;;;;;6.61;100.00;98826.34;4910958;29;20419;-82
2023/10/20 02:30:19;;;;;;;;;;;;;;;6.64;100.00;98826.13;4919433;29;19933;-83
2023/10/20 02:33:05;;;;;;;;;;;;;;;6.66;100.00;98810.28;4923838;29;19926;-79
2023/10/20 02:35:52;;;;;;;;;;;;;;;6.69;100.00;98804.00;4938104;28;19934;-79
2023/10/20 02:38:37;;;;;;;;;;;;;;;6.65;100.00;98784.94;4922938;29;20033;-79
2023/10/20 02:41:24;;;;;;;;;;;;;;;6.64;100.00;98789.31;4937030;29;19938;-82
2023/10/20 02:44:09;;;;;;;;;;;;;;;6.64;100.00;98794.59;4938927;29;19937;-79
2023/10/20 02:46:57;;;;;;;;;;;;;;;6.67;100.00;98793.56;4938976;29;20023;-81
2023/10/20 02:49:43;;;;;;;;;;;;;;;6.65;100.00;98780.50;4924559;29;19927;-80
2023/10/20 02:52:28;;;;;;;;;;;;;;;6.65;100.00;98771.78;4922395;29;19961;-77
2023/10/20 02:55:15;;;;;;;;;;;;;;;6.61;100.00;98771.13;4920773;29;19946;-81
2023/10/20 02:58:01;;;;;;;;;;;;;;;6.63;100.00;98769.22;4924375;28;19935;-76
2023/10/20 03:00:50;;;;;;;;;;;;;;;6.66;100.00;98770.84;4939927;28;19998;-77
2023/10/20 03:03:36;;;;;;;;;;;;;;;6.66;100.00;98774.28;4939288;28;19957;-80
2023/10/20 03:06:22;;;;;;;;;;;;;;;6.68;100.00;98781.22;4938260;29;20021;-82
2023/10/20 03:09:08;;;;;;;;;;;;;;;6.70;100.00;98767.06;4923846;29;20405;-81
2023/10/20 03:11:54;;;;;;;;;;;;;;;6.70;100.00;98764.41;4937176;29;20025;-80
2023/10/20 03:14:44;;;;;;;;;;;;;;;6.69;100.00;98757.47;4941310;28;19926;-82
2023/10/20 03:17:30;;;;;;;;;;;;;;;6.71;100.00;98749.50;4926840;28;19937;-82
2023/10/20 03:20:17;;;;;;;;;;;;;;;6.68;100.00;98726.00;4938800;29;19996;-81
2023/10/20 03:23:03;;;;;;;;;;;;;;;6.64;100.00;98701.69;4944502;29;19938;-80
2023/10/20 03:25:48;;;;;;;;;;;;;;;6.60;100.00;98698.41;4942147;29;19950;-82
2023/10/20 03:28:34;;;;;;;;;;;;;;;6.59;100.00;98694.09;4936909;28;19937;-82
2023/10/20 03:31:20;;;;;;;;;;;;;;;6.59;100.00;98696.72;4937120;28;19986;-77
2023/10/20 03:34:05;;;;;;;;;;;;;;;6.58;100.00;98670.56;4937227;29;20396;-79
2023/10/20 03:36:52;;;;;;;;;;;;;;;6.58;100.00;98671.38;4939905;28;20001;-84
2023/10/20 03:39:37;;;;;;;;;;;;;;;6.58;100.00;98666.13;4937171;29;20122;-81
2023/10/20 03:42:23;;;;;;;;;;;;;;;6.58;100.00;98655.59;4940464;29;20437;-80
2023/10/20 03:45:15;;;;;;;;;;;;;;;6.59;100.00;98638.06;4926709;28;19937;-81
2023/10/20 03:48:01;;;;;;;;;;;;;;;6.56;100.00;98656.66;4941119;28;19935;-79
2023/10/20 03:50:48;;;;;;;;;;;;;;;6.58;100.00;98637.19;4923325;29;20106;-81
2023/10/20 03:53:46;;;;;;;;;;;;;;;6.57;100.00;98637.28;4939747;29;20002;-80
2023/10/20 03:56:34;;;;;;;;;;;;;;;6.55;100.00;98629.53;4943214;29;20025;-79
2023/10/20 03:59:20;;;;;;;;;;;;;;;6.54;100.00;98637.50;4942754;29;19935;-80
2023/10/20 04:02:06;;;;;;;;;;;;;;;6.53;100.00;98652.41;4919005;29;19982;-79
2023/10/20 04:04:52;;;;;;;;;;;;;;;6.51;100.00;98641.16;4941260;28;21810;-81
2023/10/20 04:07:37;;;;;;;;;;;;;;;6.51;100.00;98649.91;4941110;29;20029;-82
2023/10/20 04:10:23;;;;;;;;;;;;;;;6.51;100.00;98641.16;4914612;29;20005;-78
2023/10/20 04:13:09;;;;;;;;;;;;;;;6.50;100.00;98652.63;4938362;29;20405;-79
2023/10/20 04:15:55;;;;;;;;;;;;;;;6.52;100.00;98638.44;4922923;29;19923;-82
2023/10/20 04:18:41;;;;;;;;;;;;;;;6.50;100.00;98639.50;4925831;29;19933;-82
2023/10/20 04:21:27;;;;;;;;;;;;;;;6.50;100.00;98637.69;4939541;28;19937;-81
2023/10/20 04:24:12;;;;;;;;;;;;;;;6.48;100.00;98633.50;4941080;29;20927;-82
2023/10/20 04:26:58;;;;;;;;;;;;;;;6.50;100.00;98636.84;4941593;29;19930;-81
2023/10/20 04:41:50;;;;;;;;;;;;;;;6.50;100.00;98627.16;4941916;28;19964;-78
2023/10/20 04:48:20;;;;;;;;;;;;;;;6.39;100.00;98625.22;4930172;29;19927;-81
2023/10/20 04:54:23;;;;;;;;;;;;;;;6.41;100.00;98590.09;4940262;28;20029;-81
2023/10/20 05:03:15;;;;;;;;;;;;;;;6.31;100.00;98568.84;4922573;29;19935;-81
2023/10/20 05:06:19;;;;;;;;;;;;;;;6.32;100.00;98584.50;4938693;29;20634;-77
2023/10/20 05:09:05;;;;;;;;;;;;;;;6.31;100.00;98589.88;4924943;28;19927;-77
2023/10/20 05:11:51;;;;;;;;;;;;;;;6.31;100.00;98589.88;4932834;29;19940;-79
2023/10/20 05:14:36;;;;;;;;;;;;;;;6.29;100.00;98592.59;4934718;28;19936;-80
2023/10/20 05:17:24;;;;;;;;;;;;;;;6.29;100.00;98582.09;4920526;29;19941;-79
2023/10/20 05:20:12;;;;;;;;;;;;;;;6.32;100.00;98575.78;4935762;29;19935;-79
2023/10/20 05:22:58;;;;;;;;;;;;;;;6.29;100.00;98586.50;4921109;29;19934;-78
2023/10/20 05:25:45;;;;;;;;;;;;;;;6.29;100.00;98571.56;4926354;28;19945;-78
2023/10/20 05:28:31;;;;;;;;;;;;;;;6.28;100.00;98551.50;4937754;28;19958;-79
2023/10/20 05:31:21;;;;;;;;;;;;;;;6.29;100.00;98571.56;4919304;29;19942;-78
2023/10/20 05:34:06;;;;;;;;;;;;;;;6.32;100.00;98570.53;4919366;29;20468;-77
2023/10/20 05:36:54;;;;;;;;;;;;;;;6.35;100.00;98560.69;4920743;29;19931;-78
2023/10/20 05:39:40;;;;;;;;;;;;;;;6.33;100.00;98549.41;4937911;29;19938;-79
2023/10/20 05:42:26;;;;;;;;;;;;;;;6.36;100.00;98564.13;4937757;29;19938;-81
2023/10/20 05:45:21;;;;;;;;;;;;;;;6.35;100.00;98551.94;4912219;29;19933;-78
2023/10/20 05:48:07;;;;;;;;;;;;;;;6.31;100.00;98551.28;4937131;29;19937;-75
2023/10/20 05:50:57;;;;;;;;;;;;;;;6.32;100.00;98557.41;4938580;28;19934;-78
2023/10/20 05:53:43;;;;;;;;;;;;;;;6.31;100.00;98548.66;4935371;29;19941;-80
2023/10/20 05:56:29;;;;;;;;;;;;;;;6.31;100.00;98546.03;4926298;28;20021;-77
2023/10/20 05:59:17;;;;;;;;;;;;;;;6.32;100.00;98545.09;4923037;28;19927;-77
2023/10/20 06:02:03;;;;;;;;;;;;;;;6.33;100.00;98559.91;4935487;28;19935;-77
2023/10/20 06:04:48;;;;;;;;;;;;;;;6.34;100.00;98551.09;4935480;29;19974;-78
2023/10/20 06:07:34;;;;;;;;;;;;;;;6.32;100.00;98524.06;4935728;28;19926;-78
2023/10/20 06:10:23;;;;;;;;;;;;;;;6.32;100.00;98523.25;4936911;28;20383;-79
2023/10/20 06:13:08;;;;;;;;;;;;;;;6.31;100.00;98511.03;4934821;29;21891;-77
2023/10/20 06:15:54;;;;;;;;;;;;;;;6.29;100.00;98512.91;4932978;29;20369;-78
2023/10/20 06:18:44;;;;;;;;;;;;;;;6.27;100.00;98526.16;4920701;29;19927;-78
2023/10/20 06:21:35;;;;;;;;;;;;;;;6.28;100.00;98534.88;4923481;29;20237;-78
2023/10/20 06:24:20;;;;;;;;;;;;;;;6.30;100.00;98533.84;4924328;29;20201;-79
2023/10/20 06:27:08;;;;;;;;;;;;;;;6.30;100.00;98523.31;4907271;29;19931;-77
2023/10/20 06:30:06;;;;;;;;;;;;;;;6.32;100.00;98546.88;4936328;29;19986;-79
2023/10/20 06:32:56;;;;;;;;;;;;;;;6.33;100.00;98540.69;4938295;28;21830;-81
2023/10/20 06:35:51;;;;;;;;;;;;;;;6.35;100.00;98539.66;4925347;29;19933;-79
2023/10/20 06:41:27;;;;;;;;;;;;;;;6.37;100.00;98542.16;4941548;29;19922;-80
2023/10/20 06:44:13;;;;;;;;;;;;;;;6.34;100.00;98555.50;4925608;28;19966;-78
2023/10/20 06:46:59;;;;;;;;;;;;;;;6.34;100.00;98548.47;4936636;28;19930;-78
2023/10/20 06:49:45;;;;;;;;;;;;;;;6.35;100.00;98523.88;4923513;29;19938;-80
2023/10/20 06:52:30;;;;;;;;;;;;;;;6.37;100.00;98535.13;4934501;29;19930;-78
2023/10/20 06:55:16;;;;;;;;;;;;;;;6.38;100.00;98539.44;4934195;29;19946;-81
2023/10/20 06:58:02;;;;;;;;;;;;;;;6.37;100.00;98529.88;4910235;29;19933;-80
2023/10/20 07:00:51;;;;;;;;;;;;;;;6.38;100.00;98522.84;4932163;28;20002;-77
2023/10/20 07:03:36;;;;;;;;;;;;;;;6.41;100.00;98521.78;4934825;28;19936;-78
2023/10/20 07:06:22;;;;;;;;;;;;;;;6.39;100.00;98512.19;4919245;29;19930;-78
2023/10/20 07:09:11;;;;;;;;;;;;;;;6.39;100.00;98535.84;4936581;28;19926;-77
2023/10/20 07:11:57;;;;;;;;;;;;;;;6.39;100.00;98504.31;4921189;29;19933;-81
2023/10/20 07:14:43;;;;;;;;;;;;;;;6.41;100.00;98511.25;4934149;28;19957;-78
2023/10/20 07:17:29;;;;;;;;;;;;;;;6.41;100.00;98498.13;4919233;29;19926;-79
2023/10/20 07:20:14;;;;;;;;;;;;;;;6.42;100.00;98484.06;4935393;29;19931;-81
2023/10/20 07:23:00;;;;;;;;;;;;;;;6.39;100.00;98499.06;4914362;29;20013;-81
2023/10/20 07:25:46;;;;;;;;;;;;;;;6.42;100.00;98481.44;4936684;29;19931;-78
2023/10/20 07:28:32;;;;;;;;;;;;;;;6.38;100.00;98486.88;4924132;28;20441;-79
2023/10/20 07:31:21;;;;;;;;;;;;;;;6.39;100.00;98492.97;4921878;29;19930;-80
2023/10/20 07:34:09;;;;;;;;;;;;;;;6.41;100.00;98490.22;4934647;29;19997;-80
2023/10/20 07:36:58;;;;;;;;;;;;;;;6.37;100.00;98479.94;4937567;29;19930;-83
2023/10/20 07:39:44;;;;;;;;;;;;;;;6.33;100.00;98486.31;4935430;29;19935;-80
2023/10/20 07:42:30;;;;;;;;;;;;;;;6.32;100.00;98481.19;4935462;29;19953;-86
2023/10/20 07:45:18;;;;;;;;;;;;;;;6.32;100.00;98475.94;4938351;29;19974;-79
2023/10/20 07:48:12;;;;;;;;;;;;;;;6.29;100.00;98498.00;4918299;29;19934;-80
2023/10/20 07:51:01;;;;;;;;;;;;;;;6.27;100.00;98472.75;4936858;28;19938;-78
2023/10/20 07:53:49;;;;;;;;;;;;;;;6.24;100.00;98493.03;4927251;29;19999;-80
2023/10/20 07:56:35;;;;;;;;;;;;;;;6.23;100.00;98498.38;4922207;29;19935;-77
2023/10/20 07:59:21;;;;;;;;;;;;;;;6.25;100.00;98497.34;4924764;28;19938;-79
2023/10/20 08:02:06;;;;;;;;;;;;;;;6.23;100.00;98493.13;4926790;29;19935;-77
2023/10/20 08:04:52;;;;;;;;;;;;;;;6.21;100.00;98490.59;4933612;29;19930;-78
2023/10/20 08:07:39;;;;;;;;;;;;;;;6.19;100.00;98507.41;4937918;28;19926;-78
2023/10/20 08:10:25;;;;;;;;;;;;;;;6.18;100.00;98485.56;4933540;29;19926;-82
2023/10/20 08:13:10;;;;;;;;;;;;;;;6.16;100.00;98486.59;4935006;29;19930;-79
2023/10/20 08:15:59;;;;;;;;;;;;;;;6.16;100.00;98481.34;4923999;29;19970;-77
2023/10/20 08:18:47;;;;;;;;;;;;;;;6.14;100.00;98486.69;4920989;29;19922;-79
2023/10/20 08:21:35;;;;;;;;;;;;;;;6.10;100.00;98472.91;4913040;29;19958;-77
2023/10/20 08:24:21;;;;;;;;;;;;;;;6.07;100.00;98474.88;4911357;29;19934;-78
2023/10/20 08:27:07;;;;;;;;;;;;;;;6.07;100.00;98446.00;4908899;29;20401;-79
2023/10/20 08:29:56;;;;;;;;;;;;;;;6.07;100.00;98453.88;4935483;28;19931;-80
2023/10/20 08:32:42;;;;;;;;;;;;;;;6.06;100.00;98460.06;4920373;29;19941;-80
2023/10/20 08:35:28;;;;;;;;;;;;;;;6.06;100.00;98449.56;4919263;29;19998;-83
2023/10/20 08:38:13;;;;;;;;;;;;;;;6.04;100.00;98454.09;4922635;29;19926;-78
2023/10/20 08:40:59;;;;;;;;;;;;;;;6.03;100.00;98444.50;4934638;28;20014;-78
2023/10/20 08:43:45;;;;;;;;;;;;;;;6.03;100.00;98439.25;4920582;28;19958;-80
2023/10/20 08:46:31;;;;;;;;;;;;;;;6.02;100.00;98437.53;4942475;28;20485;-77
2023/10/20 08:49:18;;;;;;;;;;;;;;;6.01;100.00;98439.34;4940471;29;19934;-79
2023/10/20 08:52:04;;;;;;;;;;;;;;;6.01;100.00;98447.22;4929561;29;19934;-79
2023/10/20 08:54:50;;;;;;;;;;;;;;;6.01;100.00;98427.97;4926830;28;19930;-80
2023/10/20 08:57:36;;;;;;;;;;;;;;;6.01;100.00;98435.84;4922325;29;20306;-81
2023/10/20 09:00:30;;;;;;;;;;;;;;;6.02;100.00;98427.91;4923346;29;20390;-78
2023/10/20 09:03:16;;;;;;;;;;;;;;;6.01;100.00;98425.34;4922389;29;20034;-78
2023/10/20 09:06:06;;;;;;;;;;;;;;;5.98;100.00;98419.34;4939044;29;19934;-76
2023/10/20 09:08:55;;;;;;;;;;;;;;;5.95;100.00;98403.78;4921370;29;19934;-78
2023/10/20 09:11:40;;;;;;;;;;;;;;;5.95;100.00;98437.09;4908638;29;21573;-78
2023/10/20 09:14:27;;;;;;;;;;;;;;;5.94;100.00;98419.66;4938707;29;19926;-77
2023/10/20 09:17:23;;;;;;;;;;;;;;;5.93;100.00;98446.84;4937473;29;20370;-80
2023/10/20 09:20:11;;;;;;;;;;;;;;;5.92;100.00;98437.28;4937559;29;19927;-81
2023/10/20 09:22:59;;;;;;;;;;;;;;;5.91;100.00;98431.22;4935400;28;19938;-77
2023/10/20 09:25:45;;;;;;;;;;;;;;;5.91;100.00;98430.34;4909016;29;19929;-77
2023/10/20 09:28:30;;;;;;;;;;;;;;;5.89;100.00;98432.25;4922738;29;19942;-78
2023/10/20 09:31:17;;;;;;;;;;;;;;;5.87;100.00;98405.25;4932959;29;19970;-77
2023/10/20 09:34:04;;;;;;;;;;;;;;;5.85;100.00;98411.41;4924385;28;19926;-77
2023/10/20 09:36:50;;;;;;;;;;;;;;;5.87;100.00;98442.84;4923758;29;21802;-77
2023/10/20 09:39:40;;;;;;;;;;;;;;;5.85;100.00;98429.78;4922884;29;20283;-78
2023/10/20 09:42:25;;;;;;;;;;;;;;;5.84;100.00;98433.38;4911077;29;19931;-85
2023/10/20 09:45:14;;;;;;;;;;;;;;;5.82;100.00;98427.38;4935440;29;19931;-77
2023/10/20 09:48:00;;;;;;;;;;;;;;;5.84;100.00;98417.63;4927342;29;19977;-78
2023/10/20 09:50:47;;;;;;;;;;;;;;;5.85;100.00;98426.34;4918988;29;19930;-77
2023/10/20 09:53:32;;;;;;;;;;;;;;;5.85;100.00;98431.59;4933057;29;20030;-77
2023/10/20 09:56:18;;;;;;;;;;;;;;;5.82;100.00;98432.63;4917931;29;20005;-78
2023/10/20 09:59:04;;;;;;;;;;;;;;;5.80;100.00;98413.53;4923803;28;19956;-75
2023/10/20 10:01:54;;;;;;;;;;;;;;;5.80;100.00;98418.78;4934490;28;19976;-77
2023/10/20 10:04:41;;;;;;;;;;;;;;;5.77;100.00;98416.31;4921893;29;19927;-78
2023/10/20 10:07:32;;;;;;;;;;;;;;;5.77;100.00;98418.13;4919094;29;21407;-77
2023/10/20 10:10:21;;;;;;;;;;;;;;;5.75;100.00;98433.97;4919389;29;20021;-77
2023/10/20 10:13:06;;;;;;;;;;;;;;;5.73;100.00;98412.22;4929656;28;19934;-77
2023/10/20 10:15:53;;;;;;;;;;;;;;;5.76;100.00;98421.66;4933126;28;20471;-77
2023/10/20 10:18:45;;;;;;;;;;;;;;;5.72;100.00;98413.16;4932877;29;19927;-78
2023/10/20 10:21:31;;;;;;;;;;;;;;;5.71;100.00;98393.09;4932989;28;19945;-77
2023/10/20 10:24:17;;;;;;;;;;;;;;;5.69;100.00;98405.47;4918192;28;19977;-77
2023/10/20 10:27:04;;;;;;;;;;;;;;;5.64;100.00;98390.03;4903321;29;19934;-77
2023/10/20 10:29:51;;;;;;;;;;;;;;;5.63;100.00;98379.63;4934433;28;20517;-77
2023/10/20 10:32:44;;;;;;;;;;;;;;;5.61;100.00;98390.22;4917072;29;19918;-77
2023/10/20 10:35:30;;;;;;;;;;;;;;;5.54;100.00;98387.16;4932296;29;19933;-78
2023/10/20 10:38:23;;;;;;;;;;;;;;;5.55;100.00;98375.72;4934669;28;19930;-77
2023/10/20 10:41:09;;;;;;;;;;;;;;;5.55;100.00;98386.22;4937254;28;19937;-79
2023/10/20 10:43:55;;;;;;;;;;;;;;;5.55;100.00;98388.84;4940436;28;19934;-76
2023/10/20 10:46:41;;;;;;;;;;;;;;;5.54;100.00;98376.66;4928755;28;19933;-78
2023/10/20 10:49:26;;;;;;;;;;;;;;;5.55;100.00;98359.97;4934879;29;19934;-77
2023/10/20 10:52:12;;;;;;;;;;;;;;;5.55;100.00;98361.72;4932413;28;20375;-81
2023/10/20 10:54:58;;;;;;;;;;;;;;;5.52;100.00;98341.78;4904973;29;19927;-76
2023/10/20 10:57:43;;;;;;;;;;;;;;;5.50;100.00;98348.91;4932428;28;20318;-76
2023/10/20 11:00:29;;;;;;;;;;;;;;;5.47;100.00;98349.13;4916856;29;20049;-78
2023/10/20 11:03:15;;;;;;;;;;;;;;;5.46;100.00;98336.09;4934510;28;20007;-76
2023/10/20 11:06:00;;;;;;;;;;;;;;;5.43;100.00;98331.88;4918825;29;20346;-77
2023/10/20 11:08:46;;;;;;;;;;;;;;;5.46;100.00;98328.22;4920420;29;19931;-77
2023/10/20 11:11:40;;;;;;;;;;;;;;;5.44;100.00;98341.44;4937101;29;20021;-78
2023/10/20 11:14:25;;;;;;;;;;;;;;;5.44;100.00;98328.31;4925272;29;19927;-77
2023/10/20 11:17:13;;;;;;;;;;;;;;;5.45;100.00;98314.22;4936961;29;19927;-79
2023/10/20 11:19:59;;;;;;;;;;;;;;;5.43;100.00;98326.63;4922589;28;19930;-79
2023/10/20 11:22:44;;;;;;;;;;;;;;;5.43;100.00;98305.63;4936141;28;19938;-85
2023/10/20 11:25:30;;;;;;;;;;;;;;;5.44;100.00;98302.91;4923924;29;19945;-77
2023/10/20 11:28:16;;;;;;;;;;;;;;;5.41;100.00;98266.34;4907801;29;19937;-77
2023/10/20 11:31:02;;;;;;;;;;;;;;;5.40;100.00;98297.97;4898599;29;19959;-83
2023/10/20 11:33:48;;;;;;;;;;;;;;;5.41;100.00;98276.84;4883067;29;19930;-80
2023/10/20 11:36:34;;;;;;;;;;;;;;;5.44;100.00;98271.41;4898951;29;19939;-78
2023/10/20 11:39:24;;;;;;;;;;;;;;;5.47;100.00;98286.13;4894384;29;20659;-77
2023/10/20 11:42:13;;;;;;;;;;;;;;;5.47;100.00;98275.63;4900314;29;20363;-79
2023/10/20 11:45:00;;;;;;;;;;;;;;;5.48;100.00;98258.09;4902949;29;19987;-81
2023/10/20 11:47:48;;;;;;;;;;;;;;;5.50;100.00;98261.47;4894120;29;19934;-79
2023/10/20 11:50:34;;;;;;;;;;;;;;;5.53;100.00;98251.63;4902955;29;20339;-77
2023/10/20 11:53:20;;;;;;;;;;;;;;;5.54;100.00;98239.31;4893697;29;19939;-79
2023/10/20 11:56:05;;;;;;;;;;;;;;;5.57;100.00;98242.56;4901645;29;19931;-79
2023/10/20 11:58:51;;;;;;;;;;;;;;;5.60;100.00;98227.59;4903130;29;19935;-78
2023/10/20 12:01:37;;;;;;;;;;;;;;;5.60;100.00;98220.53;4906825;29;19935;-87
2023/10/20 12:04:22;;;;;;;;;;;;;;;5.60;100.00;98233.66;4914853;29;19991;-79
2023/10/20 12:07:09;;;;;;;;;;;;;;;5.58;100.00;98220.63;4917863;29;20514;-83
2023/10/20 12:09:55;;;;;;;;;;;;;;;5.55;100.00;98220.84;4905150;29;19931;-78
2023/10/20 12:12:40;;;;;;;;;;;;;;;5.57;100.00;98212.88;4905517;29;19974;-79
2023/10/20 12:15:26;;;;;;;;;;;;;;;5.57;100.00;98197.94;4908290;29;19931;-80
2023/10/20 12:18:12;;;;;;;;;;;;;;;5.55;100.00;98194.59;4904265;29;19939;-81
2023/10/20 12:21:00;;;;;;;;;;;;;;;5.52;100.00;98186.94;4914306;28;19999;-79
2023/10/20 12:23:49;;;;;;;;;;;;;;;5.53;100.00;98172.03;4894883;29;19934;-79
2023/10/20 12:26:36;;;;;;;;;;;;;;;5.52;100.00;98179.06;4902997;29;20450;-77
2023/10/20 12:29:22;;;;;;;;;;;;;;;5.50;100.00;98159.94;4925041;29;20346;-80
2023/10/20 12:32:12;;;;;;;;;;;;;;;5.50;100.00;98162.56;4921712;29;20321;-79
2023/10/20 12:34:57;;;;;;;;;;;;;;;5.48;100.00;98151.34;4937889;29;20026;-78
2023/10/20 12:37:43;;;;;;;;;;;;;;;5.47;100.00;98148.81;4926253;29;19934;-82
2023/10/20 12:40:30;;;;;;;;;;;;;;;5.46;100.00;98134.00;4939572;29;19982;-79
2023/10/20 12:43:16;;;;;;;;;;;;;;;5.47;100.00;98136.53;4941444;29;20449;-82
2023/10/20 12:46:01;;;;;;;;;;;;;;;5.47;100.00;98122.56;4925402;29;20341;-82
2023/10/20 12:48:47;;;;;;;;;;;;;;;5.47;100.00;98133.06;4941020;29;19934;-80
2023/10/20 12:51:33;;;;;;;;;;;;;;;5.47;100.00;98133.91;4929819;29;19938;-85
2023/10/20 12:54:19;;;;;;;;;;;;;;;5.44;100.00;98127.09;4941696;29;19943;-80
2023/10/20 12:57:05;;;;;;;;;;;;;;;5.46;100.00;98124.38;4940545;28;19941;-82
2023/10/20 12:59:51;;;;;;;;;;;;;;;5.43;100.00;98107.03;4926451;29;19930;-78
2023/10/20 13:02:37;;;;;;;;;;;;;;;5.41;100.00;98102.84;4930679;29;20642;-79
2023/10/20 13:05:22;;;;;;;;;;;;;;;5.40;100.00;98119.53;4938092;29;20382;-81
2023/10/20 13:08:08;;;;;;;;;;;;;;;5.39;100.00;98099.50;4925396;29;20488;-83
2023/10/20 13:10:54;;;;;;;;;;;;;;;5.39;100.00;98104.75;4916480;29;19942;-87
2023/10/20 13:13:50;;;;;;;;;;;;;;;5.39;100.00;98102.13;4921681;29;20068;-79
2023/10/20 13:16:35;;;;;;;;;;;;;;;5.38;100.00;98087.28;4923920;28;20355;-80
2023/10/20 13:19:21;;;;;;;;;;;;;;;5.38;100.00;98085.53;4918465;29;19922;-78
2023/10/20 13:22:09;;;;;;;;;;;;;;;5.40;100.00;98075.75;4920998;29;19970;-78
2023/10/20 13:24:55;;;;;;;;;;;;;;;5.41;100.00;98079.22;4936503;28;19957;-78
2023/10/20 13:27:40;;;;;;;;;;;;;;;5.39;100.00;98083.75;4937945;28;20336;-80
2023/10/20 13:30:29;;;;;;;;;;;;;;;5.39;100.00;98075.88;4925079;29;20018;-79
2023/10/20 13:33:15;;;;;;;;;;;;;;;5.40;100.00;98075.75;4924935;29;19977;-78
2023/10/20 13:36:01;;;;;;;;;;;;;;;5.40;100.00;98090.66;4942789;29;19936;-78
2023/10/20 13:38:47;;;;;;;;;;;;;;;5.41;100.00;98080.03;4924712;29;19934;-82
2023/10/20 13:41:33;;;;;;;;;;;;;;;5.40;100.00;98064.44;4940164;29;19934;-77
2023/10/20 13:44:19;;;;;;;;;;;;;;;5.40;100.00;98065.25;4941216;28;19926;-80
2023/10/20 13:47:04;;;;;;;;;;;;;;;5.41;100.00;98068.72;4936986;28;20339;-78
2023/10/20 13:49:50;;;;;;;;;;;;;;;5.40;100.00;98074.94;4940074;28;20024;-80
2023/10/20 13:52:36;;;;;;;;;;;;;;;5.41;100.00;98066.09;4935049;29;20715;-81
2023/10/20 13:55:22;;;;;;;;;;;;;;;5.41;100.00;98047.75;4922743;29;19965;-79
2023/10/20 13:58:20;;;;;;;;;;;;;;;5.40;100.00;98067.88;4930960;28;20331;-81
2023/10/20 14:01:06;;;;;;;;;;;;;;;5.41;100.00;98047.75;4903020;29;19977;-78
2023/10/20 14:03:55;;;;;;;;;;;;;;;5.41;100.00;98035.44;4923900;28;19931;-77
2023/10/20 14:06:41;;;;;;;;;;;;;;;5.42;100.00;98038.91;4931974;28;20014;-78
2023/10/20 14:09:26;;;;;;;;;;;;;;;5.43;100.00;98037.97;4923099;29;19958;-78
2023/10/20 14:12:12;;;;;;;;;;;;;;;5.43;100.00;98032.72;4935687;29;20306;-80
2023/10/20 14:14:58;;;;;;;;;;;;;;;5.41;100.00;98029.38;4936313;28;19930;-81
2023/10/20 14:17:44;;;;;;;;;;;;;;;5.40;100.00;98044.25;4934914;28;19970;-80
2023/10/20 14:20:31;;;;;;;;;;;;;;;5.40;100.00;98027.69;4919997;29;21807;-79
2023/10/20 14:23:17;;;;;;;;;;;;;;;5.37;100.00;98031.38;4935833;29;19954;-79
2023/10/20 14:26:03;;;;;;;;;;;;;;;5.38;100.00;98024.31;4937897;28;19935;-78
2023/10/20 14:28:49;;;;;;;;;;;;;;;5.36;100.00;98013.09;4899866;29;19959;-80
2023/10/20 14:31:34;;;;;;;;;;;;;;;5.35;100.00;98019.28;4927219;28;19935;-80
2023/10/20 14:34:20;;;;;;;;;;;;;;;5.34;100.00;98013.19;4934507;29;19942;-80
2023/10/20 14:37:07;;;;;;;;;;;;;;;5.35;100.00;98008.81;4937783;29;19933;-82
2023/10/20 14:39:53;;;;;;;;;;;;;;;5.37;100.00;98017.41;4936344;29;20018;-78
2023/10/20 14:42:39;;;;;;;;;;;;;;;5.36;100.00;98013.09;4929563;29;20313;-79
2023/10/20 14:45:24;;;;;;;;;;;;;;;5.35;100.00;98008.81;4926904;29;19931;-78
2023/10/20 14:48:13;;;;;;;;;;;;;;;5.35;100.00;98014.91;4927007;29;19930;-79
2023/10/20 14:50:59;;;;;;;;;;;;;;;5.35;100.00;98009.66;4935666;29;19931;-79
2023/10/20 14:53:45;;;;;;;;;;;;;;;5.33;100.00;98005.44;4923505;29;19991;-79
2023/10/20 14:56:31;;;;;;;;;;;;;;;5.32;100.00;98011.66;4936551;29;19989;-80